sensor_id;sensor_type;location;lat;lon;timestamp;P1;durP1;ratioP1;P2;durP2;ratioP2
70067;SDS011;57425;51.616;6.680;2023-05-07T00:00:42;6.82;;;4.10;;
70067;SDS011;57425;51.616;6.680;2023-05-07T00:03:07;14.48;;;4.50;;
70067;SDS011;57425;51.616;6.680;2023-05-07T00:05:33;6.55;;;3.90;;
70067;SDS011;57425;51.616;6.680;2023-05-07T00:08:00;5.70;;;4.60;;
70067;SDS011;57425;51.616;6.680;2023-05-07T00:10:27;6.75;;;4.20;;
70067;SDS011;57425;51.616;6.680;2023-05-07T00:12:53;8.80;;;4.03;;
70067;SDS011;57425;51.616;6.680;2023-05-07T00:15:19;7.28;;;4.18;;
70067;SDS011;57425;51.616;6.680;2023-05-07T00:17:45;7.93;;;4.43;;
70067;SDS011;57425;51.616;6.680;2023-05-07T00:20:10;7.93;;;4.15;;
70067;SDS011;57425;51.616;6.680;2023-05-07T00:22:36;9.38;;;4.93;;
70067;SDS011;57425;51.616;6.680;2023-05-07T00:25:02;8.88;;;3.95;;
70067;SDS011;57425;51.616;6.680;2023-05-07T00:27:28;10.05;;;4.72;;
70067;SDS011;57425;51.616;6.680;2023-05-07T00:29:54;6.40;;;4.70;;
70067;SDS011;57425;51.616;6.680;2023-05-07T00:32:20;10.23;;;4.72;;
70067;SDS011;57425;51.616;6.680;2023-05-07T00:34:45;8.65;;;4.60;;
70067;SDS011;57425;51.616;6.680;2023-05-07T00:37:11;6.88;;;4.22;;
70067;SDS011;57425;51.616;6.680;2023-05-07T00:39:37;8.10;;;4.97;;
70067;SDS011;57425;51.616;6.680;2023-05-07T00:42:03;8.98;;;5.38;;
70067;SDS011;57425;51.616;6.680;2023-05-07T00:44:29;8.95;;;5.10;;
70067;SDS011;57425;51.616;6.680;2023-05-07T00:46:55;8.20;;;5.43;;
70067;SDS011;57425;51.616;6.680;2023-05-07T00:49:27;9.10;;;4.93;;
70067;SDS011;57425;51.616;6.680;2023-05-07T00:52:03;13.48;;;5.40;;
70067;SDS011;57425;51.616;6.680;2023-05-07T00:54:28;7.25;;;4.75;;
70067;SDS011;57425;51.616;6.680;2023-05-07T00:56:54;7.95;;;5.10;;
70067;SDS011;57425;51.616;6.680;2023-05-07T00:59:20;8.32;;;5.38;;
70067;SDS011;57425;51.616;6.680;2023-05-07T01:01:46;7.15;;;4.80;;
70067;SDS011;57425;51.616;6.680;2023-05-07T01:04:12;8.35;;;4.78;;
70067;SDS011;57425;51.616;6.680;2023-05-07T01:06:38;9.93;;;5.90;;
70067;SDS011;57425;51.616;6.680;2023-05-07T01:09:04;8.10;;;4.97;;
70067;SDS011;57425;51.616;6.680;2023-05-07T01:11:30;10.32;;;5.85;;
70067;SDS011;57425;51.616;6.680;2023-05-07T01:13:55;11.65;;;5.78;;
70067;SDS011;57425;51.616;6.680;2023-05-07T01:16:23;13.77;;;5.78;;
70067;SDS011;57425;51.616;6.680;2023-05-07T01:18:49;8.88;;;5.47;;
70067;SDS011;57425;51.616;6.680;2023-05-07T01:21:15;12.50;;;5.65;;
70067;SDS011;57425;51.616;6.680;2023-05-07T01:23:42;7.32;;;4.78;;
70067;SDS011;57425;51.616;6.680;2023-05-07T01:26:09;9.77;;;5.10;;
70067;SDS011;57425;51.616;6.680;2023-05-07T01:28:34;8.85;;;5.53;;
70067;SDS011;57425;51.616;6.680;2023-05-07T01:31:01;7.22;;;5.50;;
70067;SDS011;57425;51.616;6.680;2023-05-07T01:33:29;8.40;;;5.00;;
70067;SDS011;57425;51.616;6.680;2023-05-07T01:36:00;7.32;;;5.57;;
70067;SDS011;57425;51.616;6.680;2023-05-07T01:38:28;11.63;;;5.10;;
70067;SDS011;57425;51.616;6.680;2023-05-07T01:40:55;12.23;;;5.43;;
70067;SDS011;57425;51.616;6.680;2023-05-07T01:43:22;9.98;;;5.68;;
70067;SDS011;57425;51.616;6.680;2023-05-07T01:45:48;9.60;;;5.40;;
70067;SDS011;57425;51.616;6.680;2023-05-07T01:48:14;7.60;;;4.85;;
70067;SDS011;57425;51.616;6.680;2023-05-07T01:50:41;11.70;;;5.55;;
70067;SDS011;57425;51.616;6.680;2023-05-07T01:53:08;10.15;;;5.32;;
70067;SDS011;57425;51.616;6.680;2023-05-07T01:55:33;16.20;;;6.18;;
70067;SDS011;57425;51.616;6.680;2023-05-07T01:57:59;9.07;;;6.05;;
70067;SDS011;57425;51.616;6.680;2023-05-07T02:00:25;7.95;;;5.50;;
70067;SDS011;57425;51.616;6.680;2023-05-07T02:02:51;13.00;;;6.47;;
70067;SDS011;57425;51.616;6.680;2023-05-07T02:05:17;9.23;;;6.00;;
70067;SDS011;57425;51.616;6.680;2023-05-07T02:07:43;14.80;;;6.25;;
70067;SDS011;57425;51.616;6.680;2023-05-07T02:10:09;10.43;;;6.40;;
70067;SDS011;57425;51.616;6.680;2023-05-07T02:12:35;9.05;;;5.82;;
70067;SDS011;57425;51.616;6.680;2023-05-07T02:15:00;11.68;;;6.50;;
70067;SDS011;57425;51.616;6.680;2023-05-07T02:17:27;13.10;;;7.05;;
70067;SDS011;57425;51.616;6.680;2023-05-07T02:19:56;11.05;;;6.18;;
70067;SDS011;57425;51.616;6.680;2023-05-07T02:22:22;11.70;;;7.10;;
70067;SDS011;57425;51.616;6.680;2023-05-07T02:24:48;15.73;;;7.32;;
70067;SDS011;57425;51.616;6.680;2023-05-07T02:27:15;8.63;;;6.63;;
70067;SDS011;57425;51.616;6.680;2023-05-07T02:29:40;9.45;;;6.90;;
70067;SDS011;57425;51.616;6.680;2023-05-07T02:32:06;9.70;;;6.63;;
70067;SDS011;57425;51.616;6.680;2023-05-07T02:34:32;11.75;;;7.13;;
70067;SDS011;57425;51.616;6.680;2023-05-07T02:36:57;10.77;;;6.03;;
70067;SDS011;57425;51.616;6.680;2023-05-07T02:39:23;12.27;;;6.63;;
70067;SDS011;57425;51.616;6.680;2023-05-07T02:41:48;11.05;;;6.95;;
70067;SDS011;57425;51.616;6.680;2023-05-07T02:44:14;10.43;;;6.43;;
70067;SDS011;57425;51.616;6.680;2023-05-07T02:46:42;9.43;;;6.20;;
70067;SDS011;57425;51.616;6.680;2023-05-07T02:49:07;11.98;;;6.85;;
70067;SDS011;57425;51.616;6.680;2023-05-07T02:51:33;10.18;;;6.85;;
70067;SDS011;57425;51.616;6.680;2023-05-07T02:53:58;12.70;;;7.15;;
70067;SDS011;57425;51.616;6.680;2023-05-07T02:56:26;13.07;;;6.97;;
70067;SDS011;57425;51.616;6.680;2023-05-07T02:58:52;12.32;;;6.57;;
70067;SDS011;57425;51.616;6.680;2023-05-07T03:01:17;15.68;;;7.07;;
70067;SDS011;57425;51.616;6.680;2023-05-07T03:03:43;10.55;;;6.05;;
70067;SDS011;57425;51.616;6.680;2023-05-07T03:06:09;10.70;;;6.38;;
70067;SDS011;57425;51.616;6.680;2023-05-07T03:08:35;12.65;;;6.60;;
70067;SDS011;57425;51.616;6.680;2023-05-07T03:11:01;8.65;;;6.22;;
70067;SDS011;57425;51.616;6.680;2023-05-07T03:13:27;9.60;;;6.32;;
70067;SDS011;57425;51.616;6.680;2023-05-07T03:15:53;9.95;;;7.13;;
70067;SDS011;57425;51.616;6.680;2023-05-07T03:18:19;11.70;;;7.43;;
70067;SDS011;57425;51.616;6.680;2023-05-07T03:20:45;10.82;;;7.28;;
70067;SDS011;57425;51.616;6.680;2023-05-07T03:23:12;10.25;;;6.70;;
70067;SDS011;57425;51.616;6.680;2023-05-07T03:25:38;11.50;;;8.18;;
70067;SDS011;57425;51.616;6.680;2023-05-07T03:28:05;12.25;;;7.82;;
70067;SDS011;57425;51.616;6.680;2023-05-07T03:30:31;10.27;;;6.65;;
70067;SDS011;57425;51.616;6.680;2023-05-07T03:32:57;11.20;;;8.02;;
70067;SDS011;57425;51.616;6.680;2023-05-07T03:35:23;12.27;;;6.80;;
70067;SDS011;57425;51.616;6.680;2023-05-07T03:37:48;10.32;;;7.05;;
70067;SDS011;57425;51.616;6.680;2023-05-07T03:40:14;10.88;;;7.00;;
70067;SDS011;57425;51.616;6.680;2023-05-07T03:42:40;10.40;;;6.85;;
70067;SDS011;57425;51.616;6.680;2023-05-07T03:45:06;12.63;;;8.63;;
70067;SDS011;57425;51.616;6.680;2023-05-07T03:47:32;12.00;;;7.95;;
70067;SDS011;57425;51.616;6.680;2023-05-07T03:49:57;10.75;;;7.55;;
70067;SDS011;57425;51.616;6.680;2023-05-07T03:52:25;12.73;;;7.80;;
70067;SDS011;57425;51.616;6.680;2023-05-07T03:54:52;11.18;;;7.97;;
70067;SDS011;57425;51.616;6.680;2023-05-07T03:57:18;15.32;;;8.52;;
70067;SDS011;57425;51.616;6.680;2023-05-07T03:59:44;15.38;;;7.97;;
70067;SDS011;57425;51.616;6.680;2023-05-07T04:02:09;12.20;;;8.60;;
70067;SDS011;57425;51.616;6.680;2023-05-07T04:04:35;10.73;;;7.40;;
70067;SDS011;57425;51.616;6.680;2023-05-07T04:07:00;16.40;;;7.00;;
70067;SDS011;57425;51.616;6.680;2023-05-07T04:09:26;13.18;;;8.38;;
70067;SDS011;57425;51.616;6.680;2023-05-07T04:11:52;13.93;;;7.50;;
70067;SDS011;57425;51.616;6.680;2023-05-07T04:14:18;12.32;;;7.70;;
70067;SDS011;57425;51.616;6.680;2023-05-07T04:16:44;14.38;;;7.82;;
70067;SDS011;57425;51.616;6.680;2023-05-07T04:19:10;11.57;;;7.00;;
70067;SDS011;57425;51.616;6.680;2023-05-07T04:21:35;14.25;;;8.07;;
70067;SDS011;57425;51.616;6.680;2023-05-07T04:24:02;13.68;;;7.85;;
70067;SDS011;57425;51.616;6.680;2023-05-07T04:26:28;15.63;;;8.70;;
70067;SDS011;57425;51.616;6.680;2023-05-07T04:28:54;12.00;;;7.47;;
70067;SDS011;57425;51.616;6.680;2023-05-07T04:31:20;13.40;;;8.32;;
70067;SDS011;57425;51.616;6.680;2023-05-07T04:33:46;14.25;;;8.30;;
70067;SDS011;57425;51.616;6.680;2023-05-07T04:36:11;11.95;;;7.80;;
70067;SDS011;57425;51.616;6.680;2023-05-07T04:38:37;17.63;;;8.07;;
70067;SDS011;57425;51.616;6.680;2023-05-07T04:41:04;15.38;;;9.02;;
70067;SDS011;57425;51.616;6.680;2023-05-07T04:43:31;15.00;;;7.57;;
70067;SDS011;57425;51.616;6.680;2023-05-07T04:45:56;13.35;;;8.05;;
70067;SDS011;57425;51.616;6.680;2023-05-07T04:48:22;18.77;;;8.15;;
70067;SDS011;57425;51.616;6.680;2023-05-07T04:50:48;12.90;;;7.07;;
70067;SDS011;57425;51.616;6.680;2023-05-07T04:53:15;10.95;;;7.70;;
70067;SDS011;57425;51.616;6.680;2023-05-07T04:55:41;14.23;;;8.18;;
70067;SDS011;57425;51.616;6.680;2023-05-07T04:58:07;11.88;;;8.27;;
70067;SDS011;57425;51.616;6.680;2023-05-07T05:00:33;14.15;;;8.35;;
70067;SDS011;57425;51.616;6.680;2023-05-07T05:02:59;12.95;;;7.25;;
70067;SDS011;57425;51.616;6.680;2023-05-07T05:05:24;12.95;;;7.78;;
70067;SDS011;57425;51.616;6.680;2023-05-07T05:07:50;13.65;;;8.32;;
70067;SDS011;57425;51.616;6.680;2023-05-07T05:10:16;17.45;;;8.60;;
70067;SDS011;57425;51.616;6.680;2023-05-07T05:12:42;11.45;;;7.70;;
70067;SDS011;57425;51.616;6.680;2023-05-07T05:15:08;13.55;;;8.38;;
70067;SDS011;57425;51.616;6.680;2023-05-07T05:17:35;17.35;;;8.48;;
70067;SDS011;57425;51.616;6.680;2023-05-07T05:20:01;13.40;;;8.25;;
70067;SDS011;57425;51.616;6.680;2023-05-07T05:22:27;13.70;;;8.15;;
70067;SDS011;57425;51.616;6.680;2023-05-07T05:24:54;13.50;;;7.22;;
70067;SDS011;57425;51.616;6.680;2023-05-07T05:27:20;21.33;;;8.68;;
70067;SDS011;57425;51.616;6.680;2023-05-07T05:29:46;14.15;;;7.47;;
70067;SDS011;57425;51.616;6.680;2023-05-07T05:32:11;13.52;;;9.18;;
70067;SDS011;57425;51.616;6.680;2023-05-07T05:34:37;11.55;;;7.63;;
70067;SDS011;57425;51.616;6.680;2023-05-07T05:37:02;12.95;;;6.90;;
70067;SDS011;57425;51.616;6.680;2023-05-07T05:39:28;11.82;;;6.72;;
70067;SDS011;57425;51.616;6.680;2023-05-07T05:41:54;12.45;;;7.68;;
70067;SDS011;57425;51.616;6.680;2023-05-07T05:44:19;9.13;;;6.75;;
70067;SDS011;57425;51.616;6.680;2023-05-07T05:46:45;9.95;;;6.10;;
70067;SDS011;57425;51.616;6.680;2023-05-07T05:49:11;11.48;;;7.75;;
70067;SDS011;57425;51.616;6.680;2023-05-07T05:51:36;10.75;;;6.47;;
70067;SDS011;57425;51.616;6.680;2023-05-07T05:54:02;11.30;;;6.28;;
70067;SDS011;57425;51.616;6.680;2023-05-07T05:56:27;8.45;;;5.82;;
70067;SDS011;57425;51.616;6.680;2023-05-07T05:58:53;10.45;;;6.80;;
70067;SDS011;57425;51.616;6.680;2023-05-07T06:01:19;12.13;;;7.03;;
70067;SDS011;57425;51.616;6.680;2023-05-07T06:03:45;10.18;;;5.97;;
70067;SDS011;57425;51.616;6.680;2023-05-07T06:06:10;10.02;;;6.35;;
70067;SDS011;57425;51.616;6.680;2023-05-07T06:08:36;11.25;;;6.40;;
70067;SDS011;57425;51.616;6.680;2023-05-07T06:11:01;9.77;;;5.60;;
70067;SDS011;57425;51.616;6.680;2023-05-07T06:13:28;10.98;;;6.80;;
70067;SDS011;57425;51.616;6.680;2023-05-07T06:15:53;11.98;;;6.63;;
70067;SDS011;57425;51.616;6.680;2023-05-07T06:18:20;14.02;;;5.68;;
70067;SDS011;57425;51.616;6.680;2023-05-07T06:20:45;13.93;;;6.20;;
70067;SDS011;57425;51.616;6.680;2023-05-07T06:23:11;9.60;;;6.70;;
70067;SDS011;57425;51.616;6.680;2023-05-07T06:25:37;11.35;;;5.82;;
70067;SDS011;57425;51.616;6.680;2023-05-07T06:28:02;11.30;;;5.60;;
70067;SDS011;57425;51.616;6.680;2023-05-07T06:30:28;10.15;;;6.18;;
70067;SDS011;57425;51.616;6.680;2023-05-07T06:32:54;11.32;;;5.22;;
70067;SDS011;57425;51.616;6.680;2023-05-07T06:35:19;12.20;;;5.57;;
70067;SDS011;57425;51.616;6.680;2023-05-07T06:37:45;11.65;;;6.50;;
70067;SDS011;57425;51.616;6.680;2023-05-07T06:40:10;12.50;;;6.82;;
70067;SDS011;57425;51.616;6.680;2023-05-07T06:42:36;11.10;;;6.80;;
70067;SDS011;57425;51.616;6.680;2023-05-07T06:45:02;12.90;;;6.03;;
70067;SDS011;57425;51.616;6.680;2023-05-07T06:47:28;10.75;;;5.82;;
70067;SDS011;57425;51.616;6.680;2023-05-07T06:49:54;13.02;;;6.63;;
70067;SDS011;57425;51.616;6.680;2023-05-07T06:52:20;12.27;;;5.68;;
70067;SDS011;57425;51.616;6.680;2023-05-07T06:54:45;12.02;;;5.95;;
70067;SDS011;57425;51.616;6.680;2023-05-07T06:57:11;10.43;;;5.28;;
70067;SDS011;57425;51.616;6.680;2023-05-07T06:59:37;9.52;;;5.32;;
70067;SDS011;57425;51.616;6.680;2023-05-07T07:02:02;15.10;;;5.47;;
70067;SDS011;57425;51.616;6.680;2023-05-07T07:04:28;8.30;;;4.57;;
70067;SDS011;57425;51.616;6.680;2023-05-07T07:06:54;10.82;;;4.30;;
70067;SDS011;57425;51.616;6.680;2023-05-07T07:09:19;7.93;;;4.50;;
70067;SDS011;57425;51.616;6.680;2023-05-07T07:11:45;6.97;;;4.00;;
70067;SDS011;57425;51.616;6.680;2023-05-07T07:14:11;7.97;;;4.85;;
70067;SDS011;57425;51.616;6.680;2023-05-07T07:16:37;9.55;;;4.20;;
70067;SDS011;57425;51.616;6.680;2023-05-07T07:19:02;5.88;;;4.07;;
70067;SDS011;57425;51.616;6.680;2023-05-07T07:21:28;6.10;;;3.92;;
70067;SDS011;57425;51.616;6.680;2023-05-07T07:23:53;7.10;;;3.83;;
70067;SDS011;57425;51.616;6.680;2023-05-07T07:26:19;6.32;;;3.78;;
70067;SDS011;57425;51.616;6.680;2023-05-07T07:28:45;7.43;;;3.83;;
70067;SDS011;57425;51.616;6.680;2023-05-07T07:31:11;7.88;;;3.97;;
70067;SDS011;57425;51.616;6.680;2023-05-07T07:33:37;5.65;;;4.00;;
70067;SDS011;57425;51.616;6.680;2023-05-07T07:36:03;6.95;;;4.32;;
70067;SDS011;57425;51.616;6.680;2023-05-07T07:38:30;6.65;;;3.60;;
70067;SDS011;57425;51.616;6.680;2023-05-07T07:40:56;6.97;;;3.97;;
70067;SDS011;57425;51.616;6.680;2023-05-07T07:43:22;6.35;;;3.35;;
70067;SDS011;57425;51.616;6.680;2023-05-07T07:45:47;9.00;;;4.40;;
70067;SDS011;57425;51.616;6.680;2023-05-07T07:48:13;10.32;;;3.78;;
70067;SDS011;57425;51.616;6.680;2023-05-07T07:50:39;10.10;;;3.75;;
70067;SDS011;57425;51.616;6.680;2023-05-07T07:53:05;6.20;;;3.70;;
70067;SDS011;57425;51.616;6.680;2023-05-07T07:55:30;11.60;;;3.28;;
70067;SDS011;57425;51.616;6.680;2023-05-07T07:57:57;5.65;;;3.03;;
70067;SDS011;57425;51.616;6.680;2023-05-07T08:00:22;9.82;;;3.08;;
70067;SDS011;57425;51.616;6.680;2023-05-07T08:02:48;4.90;;;3.45;;
70067;SDS011;57425;51.616;6.680;2023-05-07T08:05:14;8.98;;;3.58;;
70067;SDS011;57425;51.616;6.680;2023-05-07T08:07:40;4.60;;;3.28;;
70067;SDS011;57425;51.616;6.680;2023-05-07T08:10:06;5.00;;;3.40;;
70067;SDS011;57425;51.616;6.680;2023-05-07T08:12:31;4.40;;;3.10;;
70067;SDS011;57425;51.616;6.680;2023-05-07T08:14:57;5.57;;;3.20;;
70067;SDS011;57425;51.616;6.680;2023-05-07T08:17:23;5.40;;;2.35;;
70067;SDS011;57425;51.616;6.680;2023-05-07T08:19:49;7.05;;;3.25;;
70067;SDS011;57425;51.616;6.680;2023-05-07T08:22:15;7.15;;;3.55;;
70067;SDS011;57425;51.616;6.680;2023-05-07T08:24:42;4.28;;;2.53;;
70067;SDS011;57425;51.616;6.680;2023-05-07T08:27:08;5.13;;;3.45;;
70067;SDS011;57425;51.616;6.680;2023-05-07T08:29:34;6.07;;;3.42;;
70067;SDS011;57425;51.616;6.680;2023-05-07T08:31:59;4.05;;;2.65;;
70067;SDS011;57425;51.616;6.680;2023-05-07T08:34:25;4.00;;;3.03;;
70067;SDS011;57425;51.616;6.680;2023-05-07T08:36:50;8.40;;;3.33;;
70067;SDS011;57425;51.616;6.680;2023-05-07T08:39:16;7.45;;;3.30;;
70067;SDS011;57425;51.616;6.680;2023-05-07T08:41:45;8.90;;;3.85;;
70067;SDS011;57425;51.616;6.680;2023-05-07T08:44:13;8.77;;;3.40;;
70067;SDS011;57425;51.616;6.680;2023-05-07T08:46:39;6.15;;;3.15;;
70067;SDS011;57425;51.616;6.680;2023-05-07T08:49:06;13.45;;;3.85;;
70067;SDS011;57425;51.616;6.680;2023-05-07T08:51:32;6.78;;;3.28;;
70067;SDS011;57425;51.616;6.680;2023-05-07T08:53:59;7.80;;;2.80;;
70067;SDS011;57425;51.616;6.680;2023-05-07T08:56:26;5.32;;;2.83;;
70067;SDS011;57425;51.616;6.680;2023-05-07T08:58:51;4.30;;;2.33;;
70067;SDS011;57425;51.616;6.680;2023-05-07T09:01:21;5.60;;;3.42;;
70067;SDS011;57425;51.616;6.680;2023-05-07T09:03:47;7.95;;;2.83;;
70067;SDS011;57425;51.616;6.680;2023-05-07T09:06:15;3.38;;;2.25;;
70067;SDS011;57425;51.616;6.680;2023-05-07T09:08:41;5.13;;;2.90;;
70067;SDS011;57425;51.616;6.680;2023-05-07T09:11:19;5.85;;;2.70;;
70067;SDS011;57425;51.616;6.680;2023-05-07T09:13:47;6.05;;;3.33;;
70067;SDS011;57425;51.616;6.680;2023-05-07T09:16:13;7.18;;;3.08;;
70067;SDS011;57425;51.616;6.680;2023-05-07T09:18:42;5.75;;;2.70;;
70067;SDS011;57425;51.616;6.680;2023-05-07T09:21:11;6.25;;;2.63;;
70067;SDS011;57425;51.616;6.680;2023-05-07T09:23:41;6.20;;;2.15;;
70067;SDS011;57425;51.616;6.680;2023-05-07T09:26:07;5.05;;;2.50;;
70067;SDS011;57425;51.616;6.680;2023-05-07T09:28:38;6.45;;;2.78;;
70067;SDS011;57425;51.616;6.680;2023-05-07T09:31:05;3.83;;;2.67;;
70067;SDS011;57425;51.616;6.680;2023-05-07T09:33:31;5.53;;;2.65;;
70067;SDS011;57425;51.616;6.680;2023-05-07T09:35:56;5.25;;;2.80;;
70067;SDS011;57425;51.616;6.680;2023-05-07T09:38:22;4.32;;;2.90;;
70067;SDS011;57425;51.616;6.680;2023-05-07T09:40:48;4.57;;;2.70;;
70067;SDS011;57425;51.616;6.680;2023-05-07T09:43:34;5.93;;;2.38;;
70067;SDS011;57425;51.616;6.680;2023-05-07T09:46:02;5.60;;;2.90;;
70067;SDS011;57425;51.616;6.680;2023-05-07T09:48:30;6.75;;;2.88;;
70067;SDS011;57425;51.616;6.680;2023-05-07T09:50:57;5.57;;;2.95;;
70067;SDS011;57425;51.616;6.680;2023-05-07T09:53:27;3.10;;;1.88;;
70067;SDS011;57425;51.616;6.680;2023-05-07T09:55:56;2.92;;;2.30;;
70067;SDS011;57425;51.616;6.680;2023-05-07T09:58:23;4.57;;;2.55;;
70067;SDS011;57425;51.616;6.680;2023-05-07T10:00:50;8.20;;;2.65;;
70067;SDS011;57425;51.616;6.680;2023-05-07T10:03:17;4.30;;;2.80;;
70067;SDS011;57425;51.616;6.680;2023-05-07T10:05:45;3.92;;;2.42;;
70067;SDS011;57425;51.616;6.680;2023-05-07T10:08:12;3.83;;;1.98;;
70067;SDS011;57425;51.616;6.680;2023-05-07T10:10:38;5.15;;;2.80;;
70067;SDS011;57425;51.616;6.680;2023-05-07T10:13:05;4.10;;;2.75;;
70067;SDS011;57425;51.616;6.680;2023-05-07T10:15:35;3.00;;;2.00;;
70067;SDS011;57425;51.616;6.680;2023-05-07T10:18:02;4.63;;;2.50;;
70067;SDS011;57425;51.616;6.680;2023-05-07T10:20:29;3.35;;;2.28;;
70067;SDS011;57425;51.616;6.680;2023-05-07T10:22:55;2.35;;;1.60;;
70067;SDS011;57425;51.616;6.680;2023-05-07T10:25:28;3.95;;;1.88;;
70067;SDS011;57425;51.616;6.680;2023-05-07T10:27:57;5.88;;;1.95;;
70067;SDS011;57425;51.616;6.680;2023-05-07T10:30:40;2.00;;;1.48;;
70067;SDS011;57425;51.616;6.680;2023-05-07T10:33:10;5.82;;;2.33;;
70067;SDS011;57425;51.616;6.680;2023-05-07T10:35:39;3.15;;;1.60;;
70067;SDS011;57425;51.616;6.680;2023-05-07T10:38:07;3.05;;;1.40;;
70067;SDS011;57425;51.616;6.680;2023-05-07T10:40:34;1.83;;;1.02;;
70067;SDS011;57425;51.616;6.680;2023-05-07T10:43:01;1.13;;;0.98;;
70067;SDS011;57425;51.616;6.680;2023-05-07T10:45:30;2.83;;;1.60;;
70067;SDS011;57425;51.616;6.680;2023-05-07T10:48:12;1.92;;;1.35;;
70067;SDS011;57425;51.616;6.680;2023-05-07T10:50:39;4.45;;;2.03;;
70067;SDS011;57425;51.616;6.680;2023-05-07T10:55:44;1.83;;;1.50;;
70067;SDS011;57425;51.616;6.680;2023-05-07T11:00:50;3.42;;;1.92;;
70067;SDS011;57425;51.616;6.680;2023-05-07T11:03:21;2.45;;;1.23;;
70067;SDS011;57425;51.616;6.680;2023-05-07T11:05:48;8.43;;;2.05;;
70067;SDS011;57425;51.616;6.680;2023-05-07T11:11:18;2.13;;;1.50;;
70067;SDS011;57425;51.616;6.680;2023-05-07T11:13:47;3.17;;;1.70;;
70067;SDS011;57425;51.616;6.680;2023-05-07T11:16:23;3.58;;;1.60;;
70067;SDS011;57425;51.616;6.680;2023-05-07T11:18:56;2.90;;;1.67;;
70067;SDS011;57425;51.616;6.680;2023-05-07T11:21:41;3.95;;;1.95;;
70067;SDS011;57425;51.616;6.680;2023-05-07T11:24:10;3.20;;;1.60;;
70067;SDS011;57425;51.616;6.680;2023-05-07T11:26:42;5.63;;;1.88;;
70067;SDS011;57425;51.616;6.680;2023-05-07T11:29:12;3.70;;;1.70;;
70067;SDS011;57425;51.616;6.680;2023-05-07T11:31:51;5.80;;;2.20;;
70067;SDS011;57425;51.616;6.680;2023-05-07T11:34:22;5.53;;;1.70;;
70067;SDS011;57425;51.616;6.680;2023-05-07T11:36:49;1.92;;;1.45;;
70067;SDS011;57425;51.616;6.680;2023-05-07T11:39:28;2.17;;;1.25;;
70067;SDS011;57425;51.616;6.680;2023-05-07T11:42:01;5.72;;;1.75;;
70067;SDS011;57425;51.616;6.680;2023-05-07T11:44:43;2.75;;;1.65;;
70067;SDS011;57425;51.616;6.680;2023-05-07T11:47:11;3.58;;;1.85;;
70067;SDS011;57425;51.616;6.680;2023-05-07T11:49:42;3.55;;;1.95;;
70067;SDS011;57425;51.616;6.680;2023-05-07T11:52:07;4.05;;;1.50;;
70067;SDS011;57425;51.616;6.680;2023-05-07T11:54:36;4.55;;;1.85;;
70067;SDS011;57425;51.616;6.680;2023-05-07T11:57:02;5.45;;;1.48;;
70067;SDS011;57425;51.616;6.680;2023-05-07T11:59:28;3.50;;;1.55;;
70067;SDS011;57425;51.616;6.680;2023-05-07T12:01:56;3.97;;;1.70;;
70067;SDS011;57425;51.616;6.680;2023-05-07T12:04:24;3.10;;;1.30;;
70067;SDS011;57425;51.616;6.680;2023-05-07T12:06:53;1.80;;;1.40;;
70067;SDS011;57425;51.616;6.680;2023-05-07T12:09:20;4.18;;;1.60;;
70067;SDS011;57425;51.616;6.680;2023-05-07T12:11:46;8.35;;;1.58;;
70067;SDS011;57425;51.616;6.680;2023-05-07T12:14:12;3.00;;;1.80;;
70067;SDS011;57425;51.616;6.680;2023-05-07T12:16:38;2.53;;;1.33;;
70067;SDS011;57425;51.616;6.680;2023-05-07T12:19:06;2.60;;;1.70;;
70067;SDS011;57425;51.616;6.680;2023-05-07T12:21:34;9.18;;;2.40;;
70067;SDS011;57425;51.616;6.680;2023-05-07T12:24:00;5.10;;;1.50;;
70067;SDS011;57425;51.616;6.680;2023-05-07T12:26:26;1.48;;;1.38;;
70067;SDS011;57425;51.616;6.680;2023-05-07T12:28:52;6.75;;;1.50;;
70067;SDS011;57425;51.616;6.680;2023-05-07T12:31:18;7.13;;;1.70;;
70067;SDS011;57425;51.616;6.680;2023-05-07T12:33:45;6.25;;;1.73;;
70067;SDS011;57425;51.616;6.680;2023-05-07T12:36:11;4.88;;;2.45;;
70067;SDS011;57425;51.616;6.680;2023-05-07T12:38:38;4.82;;;1.85;;
70067;SDS011;57425;51.616;6.680;2023-05-07T12:41:06;3.67;;;2.10;;
70067;SDS011;57425;51.616;6.680;2023-05-07T12:43:33;3.42;;;2.17;;
70067;SDS011;57425;51.616;6.680;2023-05-07T12:46:03;5.75;;;2.05;;
70067;SDS011;57425;51.616;6.680;2023-05-07T12:48:30;3.67;;;2.38;;
70067;SDS011;57425;51.616;6.680;2023-05-07T12:50:57;3.42;;;2.20;;
70067;SDS011;57425;51.616;6.680;2023-05-07T12:53:25;4.55;;;2.10;;
70067;SDS011;57425;51.616;6.680;2023-05-07T12:55:55;3.25;;;2.35;;
70067;SDS011;57425;51.616;6.680;2023-05-07T12:58:25;5.75;;;2.67;;
70067;SDS011;57425;51.616;6.680;2023-05-07T13:00:53;7.18;;;3.08;;
70067;SDS011;57425;51.616;6.680;2023-05-07T13:03:30;3.72;;;2.55;;
70067;SDS011;57425;51.616;6.680;2023-05-07T13:05:58;7.10;;;3.17;;
70067;SDS011;57425;51.616;6.680;2023-05-07T13:08:25;5.82;;;2.67;;
70067;SDS011;57425;51.616;6.680;2023-05-07T13:11:10;3.47;;;2.33;;
70067;SDS011;57425;51.616;6.680;2023-05-07T13:13:38;7.72;;;2.50;;
70067;SDS011;57425;51.616;6.680;2023-05-07T13:16:05;5.82;;;2.70;;
70067;SDS011;57425;51.616;6.680;2023-05-07T13:18:32;3.67;;;2.55;;
70067;SDS011;57425;51.616;6.680;2023-05-07T13:21:00;7.90;;;3.00;;
70067;SDS011;57425;51.616;6.680;2023-05-07T13:23:26;5.93;;;2.70;;
70067;SDS011;57425;51.616;6.680;2023-05-07T13:25:53;4.63;;;2.80;;
70067;SDS011;57425;51.616;6.680;2023-05-07T13:28:19;3.40;;;2.38;;
70067;SDS011;57425;51.616;6.680;2023-05-07T13:30:45;5.82;;;2.83;;
70067;SDS011;57425;51.616;6.680;2023-05-07T13:33:11;3.95;;;2.35;;
70067;SDS011;57425;51.616;6.680;2023-05-07T13:35:37;7.90;;;2.75;;
70067;SDS011;57425;51.616;6.680;2023-05-07T13:38:03;5.60;;;2.75;;
70067;SDS011;57425;51.616;6.680;2023-05-07T13:40:29;8.05;;;3.38;;
70067;SDS011;57425;51.616;6.680;2023-05-07T13:42:56;4.97;;;3.35;;
70067;SDS011;57425;51.616;6.680;2023-05-07T13:45:23;5.68;;;3.38;;
70067;SDS011;57425;51.616;6.680;2023-05-07T13:47:50;8.02;;;3.63;;
70067;SDS011;57425;51.616;6.680;2023-05-07T13:50:16;8.88;;;3.22;;
70067;SDS011;57425;51.616;6.680;2023-05-07T13:52:45;7.38;;;3.55;;
70067;SDS011;57425;51.616;6.680;2023-05-07T13:55:15;4.28;;;2.92;;
70067;SDS011;57425;51.616;6.680;2023-05-07T13:57:43;7.82;;;3.38;;
70067;SDS011;57425;51.616;6.680;2023-05-07T14:00:10;8.80;;;3.88;;
70067;SDS011;57425;51.616;6.680;2023-05-07T14:02:36;7.13;;;2.97;;
70067;SDS011;57425;51.616;6.680;2023-05-07T14:05:02;10.13;;;3.67;;
70067;SDS011;57425;51.616;6.680;2023-05-07T14:07:28;5.32;;;3.75;;
70067;SDS011;57425;51.616;6.680;2023-05-07T14:09:54;7.95;;;3.85;;
70067;SDS011;57425;51.616;6.680;2023-05-07T14:12:21;9.93;;;4.10;;
70067;SDS011;57425;51.616;6.680;2023-05-07T14:14:47;10.45;;;4.35;;
70067;SDS011;57425;51.616;6.680;2023-05-07T14:17:15;6.55;;;3.95;;
70067;SDS011;57425;51.616;6.680;2023-05-07T14:19:44;7.53;;;3.63;;
70067;SDS011;57425;51.616;6.680;2023-05-07T14:22:13;9.77;;;3.65;;
70067;SDS011;57425;51.616;6.680;2023-05-07T14:24:39;6.70;;;3.53;;
70067;SDS011;57425;51.616;6.680;2023-05-07T14:27:05;5.95;;;3.78;;
70067;SDS011;57425;51.616;6.680;2023-05-07T14:29:31;8.57;;;3.80;;
70067;SDS011;57425;51.616;6.680;2023-05-07T14:31:58;13.55;;;3.88;;
70067;SDS011;57425;51.616;6.680;2023-05-07T14:34:23;10.10;;;4.15;;
70067;SDS011;57425;51.616;6.680;2023-05-07T14:36:49;8.73;;;3.33;;
70067;SDS011;57425;51.616;6.680;2023-05-07T14:39:14;12.00;;;4.25;;
70067;SDS011;57425;51.616;6.680;2023-05-07T14:41:40;7.10;;;3.33;;
70067;SDS011;57425;51.616;6.680;2023-05-07T14:44:06;6.00;;;3.72;;
70067;SDS011;57425;51.616;6.680;2023-05-07T14:46:31;9.65;;;4.22;;
70067;SDS011;57425;51.616;6.680;2023-05-07T14:48:57;9.07;;;3.67;;